createdAt,value
2022-09-13T00:10:44.185Z,78.61
2022-09-13T00:20:51.655Z,78.92
2022-09-13T00:31:01.173Z,79.06
2022-09-13T00:41:10.145Z,79.05
2022-09-13T00:51:17.889Z,78.88
2022-09-13T01:01:27.374Z,78.91
2022-09-13T01:11:38.143Z,79.22
2022-09-13T01:22:20.374Z,79.11
2022-09-13T01:32:25.921Z,79.55
2022-09-13T01:42:39.145Z,79.73
2022-09-13T01:52:44.472Z,79.94
2022-09-13T02:02:53.807Z,80.32
2022-09-13T02:13:01.015Z,80.51
2022-09-13T02:23:13.559Z,80.48
2022-09-13T02:33:25.472Z,80.55
2022-09-13T02:43:31.625Z,80.67
2022-09-13T02:53:37.091Z,80.62
2022-09-13T03:03:44.155Z,80.65
2022-09-13T03:13:56.915Z,80.80
2022-09-13T03:24:09.353Z,80.86
2022-09-13T03:34:25.200Z,80.93
2022-09-13T03:44:35.434Z,81.04
2022-09-13T03:54:42.667Z,81.04
2022-09-13T04:04:50.333Z,81.20
2022-09-13T04:14:57.891Z,81.24
2022-09-13T04:25:03.856Z,81.35
2022-09-13T04:35:10.613Z,81.44
2022-09-13T04:45:18.176Z,81.66
2022-09-13T04:55:25.144Z,81.77
2022-09-13T05:05:33.421Z,81.86
2022-09-13T05:15:40.714Z,82.16
2022-09-13T05:25:47.376Z,83.17
2022-09-13T05:35:54.677Z,83.19
2022-09-13T05:46:02.301Z,82.32
2022-09-13T05:56:15.876Z,81.82
2022-09-13T06:06:24.561Z,81.29
2022-09-13T06:16:31.941Z,80.98
2022-09-13T06:26:39.180Z,79.44
2022-09-13T06:46:53.280Z,77.26
2022-09-13T06:57:03.212Z,76.61
2022-09-13T07:07:10.464Z,76.08
2022-09-13T07:17:18.272Z,76.43
2022-09-13T07:27:25.778Z,75.66
2022-09-13T07:37:33.011Z,75.09
2022-09-13T07:47:40.362Z,74.95
2022-09-13T07:57:47.601Z,75.71
2022-09-13T08:07:54.793Z,75.43
2022-09-13T08:18:02.363Z,74.77
2022-09-13T08:28:09.378Z,73.77
2022-09-13T08:38:16.580Z,71.95
2022-09-13T08:48:31.692Z,71.47
2022-09-13T08:58:49.933Z,70.37
2022-09-13T09:08:59.995Z,69.53
2022-09-13T09:19:07.390Z,69.30
2022-09-13T09:29:20.745Z,68.54
2022-09-13T09:39:39.286Z,67.83
2022-09-13T09:50:04.820Z,67.37
2022-09-13T10:00:14.700Z,66.24
2022-09-13T10:10:24.602Z,66.10
2022-09-13T10:20:33.090Z,65.29
2022-09-13T10:30:43.652Z,65.02
2022-09-13T10:40:50.821Z,64.68
2022-09-13T10:51:03.725Z,64.20
2022-09-13T11:01:40.296Z,63.27
2022-09-13T11:11:49.502Z,62.33
2022-09-13T11:21:58.987Z,61.81
2022-09-13T11:32:07.413Z,61.20
2022-09-13T11:42:18.158Z,61.13
2022-09-13T11:52:26.585Z,60.84
2022-09-13T12:02:38.720Z,61.05
2022-09-13T12:12:48.440Z,60.85
2022-09-13T12:33:07.261Z,60.91
2022-09-13T12:43:32.520Z,60.49
2022-09-13T12:54:13.856Z,59.89
2022-09-13T13:04:18.920Z,59.66
2022-09-13T13:14:44.577Z,59.80
2022-09-13T13:24:51.788Z,59.68
2022-09-13T13:35:18.878Z,59.37
2022-09-13T13:45:26.090Z,59.59
2022-09-13T13:55:31.759Z,59.53
2022-09-13T14:05:37.634Z,59.45
2022-09-13T14:15:51.320Z,59.58
2022-09-13T14:25:56.563Z,59.64
2022-09-13T14:36:05.116Z,59.71
2022-09-13T14:46:16.762Z,60.04
2022-09-13T14:56:22.225Z,60.39
2022-09-13T15:06:31.746Z,60.59
2022-09-13T15:16:48.754Z,60.86
2022-09-13T15:27:03.464Z,61.36
2022-09-13T15:37:09.316Z,61.82
2022-09-13T15:47:16.988Z,62.01
2022-09-13T15:57:22.461Z,62.56
2022-09-13T16:07:30.101Z,62.92
2022-09-13T16:17:36.278Z,63.52
2022-09-13T16:27:45.028Z,63.78
2022-09-13T16:37:52.868Z,64.13
2022-09-13T16:48:00.674Z,64.30
2022-09-13T16:58:08.170Z,64.57
2022-09-13T17:08:14.869Z,64.98
2022-09-13T17:18:22.152Z,65.66
2022-09-13T17:28:29.344Z,65.91
2022-09-13T17:38:36.651Z,66.32
2022-09-13T17:48:44.944Z,66.75
2022-09-13T17:58:50.088Z,67.42
2022-09-13T18:08:58.505Z,67.75
2022-09-13T18:19:06.010Z,67.90
2022-09-13T18:29:13.902Z,68.17
2022-09-13T18:39:21.668Z,68.43
2022-09-13T18:49:29.002Z,68.77
2022-09-13T18:59:36.276Z,68.82
2022-09-13T19:09:43.588Z,69.04
2022-09-13T19:19:51.383Z,69.21
2022-09-13T19:29:59.391Z,69.26
2022-09-13T19:40:06.352Z,69.45
2022-09-13T19:50:13.049Z,69.39
2022-09-13T20:00:19.914Z,69.48
2022-09-13T20:10:27.167Z,69.80
2022-09-13T20:20:37.493Z,69.69
2022-09-13T20:30:53.239Z,69.76
2022-09-13T20:41:03.673Z,69.92
2022-09-13T20:51:12.967Z,70.08
2022-09-13T21:01:22.817Z,70.07
2022-09-13T21:11:34.113Z,70.27
2022-09-13T21:21:43.648Z,70.38
2022-09-13T21:31:51.290Z,70.65
2022-09-13T21:41:58.542Z,70.79
2022-09-13T21:52:03.455Z,71.06
2022-09-13T22:02:11.885Z,71.34
2022-09-13T22:12:19.130Z,71.31
2022-09-13T22:22:26.325Z,71.36
2022-09-13T22:32:33.689Z,71.50
2022-09-13T22:42:40.894Z,71.63
2022-09-13T22:52:48.314Z,72.03
2022-09-13T23:02:56.244Z,72.20
2022-09-13T23:13:03.498Z,72.50
2022-09-13T23:23:10.987Z,72.72
2022-09-13T23:33:18.495Z,72.94
2022-09-13T23:43:26.566Z,73.28
2022-09-13T23:53:34.203Z,73.50
